sensor_id;sensor_type;location;lat;lon;timestamp;P1;durP1;ratioP1;P2;durP2;ratioP2
75021;SDS011;63583;49.976;20.182;2022-11-20T00:01:09;10.95;;;6.97;;
75021;SDS011;63583;49.976;20.182;2022-11-20T00:03:37;16.00;;;7.40;;
75021;SDS011;63583;49.976;20.182;2022-11-20T00:06:04;13.07;;;7.55;;
75021;SDS011;63583;49.976;20.182;2022-11-20T00:08:31;12.25;;;6.60;;
75021;SDS011;63583;49.976;20.182;2022-11-20T00:11:02;14.77;;;6.85;;
75021;SDS011;63583;49.976;20.182;2022-11-20T00:13:35;11.68;;;4.93;;
75021;SDS011;63583;49.976;20.182;2022-11-20T00:16:04;10.80;;;6.45;;
75021;SDS011;63583;49.976;20.182;2022-11-20T00:18:35;7.95;;;6.88;;
75021;SDS011;63583;49.976;20.182;2022-11-20T00:21:04;10.48;;;6.97;;
75021;SDS011;63583;49.976;20.182;2022-11-20T00:23:32;15.13;;;10.30;;
75021;SDS011;63583;49.976;20.182;2022-11-20T00:26:01;12.45;;;8.35;;
75021;SDS011;63583;49.976;20.182;2022-11-20T00:28:28;14.75;;;7.63;;
75021;SDS011;63583;49.976;20.182;2022-11-20T00:30:59;16.13;;;9.18;;
75021;SDS011;63583;49.976;20.182;2022-11-20T00:33:36;16.95;;;8.65;;
75021;SDS011;63583;49.976;20.182;2022-11-20T00:36:05;13.07;;;7.18;;
75021;SDS011;63583;49.976;20.182;2022-11-20T00:38:35;11.05;;;8.98;;
75021;SDS011;63583;49.976;20.182;2022-11-20T00:41:02;26.55;;;10.32;;
75021;SDS011;63583;49.976;20.182;2022-11-20T00:43:30;12.43;;;9.00;;
75021;SDS011;63583;49.976;20.182;2022-11-20T00:45:59;20.42;;;13.13;;
75021;SDS011;63583;49.976;20.182;2022-11-20T00:48:30;19.20;;;10.25;;
75021;SDS011;63583;49.976;20.182;2022-11-20T00:50:56;19.23;;;10.65;;
75021;SDS011;63583;49.976;20.182;2022-11-20T00:53:23;18.05;;;11.00;;
75021;SDS011;63583;49.976;20.182;2022-11-20T00:55:58;17.67;;;10.63;;
75021;SDS011;63583;49.976;20.182;2022-11-20T00:58:30;13.73;;;10.18;;
75021;SDS011;63583;49.976;20.182;2022-11-20T01:01:01;13.77;;;7.07;;
75021;SDS011;63583;49.976;20.182;2022-11-20T01:03:32;16.23;;;10.88;;
75021;SDS011;63583;49.976;20.182;2022-11-20T01:05:59;9.98;;;7.22;;
75021;SDS011;63583;49.976;20.182;2022-11-20T01:08:29;10.30;;;7.35;;
75021;SDS011;63583;49.976;20.182;2022-11-20T01:11:04;19.65;;;10.52;;
75021;SDS011;63583;49.976;20.182;2022-11-20T01:13:32;14.80;;;9.20;;
75021;SDS011;63583;49.976;20.182;2022-11-20T01:18:38;7.18;;;6.13;;
75021;SDS011;63583;49.976;20.182;2022-11-20T01:21:07;18.50;;;8.25;;
75021;SDS011;63583;49.976;20.182;2022-11-20T01:23:38;14.90;;;8.35;;
75021;SDS011;63583;49.976;20.182;2022-11-20T01:26:06;9.73;;;7.10;;
75021;SDS011;63583;49.976;20.182;2022-11-20T01:28:34;18.63;;;9.70;;
75021;SDS011;63583;49.976;20.182;2022-11-20T01:31:00;20.45;;;10.80;;
75021;SDS011;63583;49.976;20.182;2022-11-20T01:33:27;12.52;;;8.63;;
75021;SDS011;63583;49.976;20.182;2022-11-20T01:35:53;11.98;;;6.53;;
75021;SDS011;63583;49.976;20.182;2022-11-20T01:38:28;18.20;;;8.57;;
75021;SDS011;63583;49.976;20.182;2022-11-20T01:40:54;16.55;;;7.57;;
75021;SDS011;63583;49.976;20.182;2022-11-20T01:43:21;20.63;;;9.57;;
75021;SDS011;63583;49.976;20.182;2022-11-20T01:51:24;18.65;;;7.47;;
75021;SDS011;63583;49.976;20.182;2022-11-20T01:53:55;16.98;;;8.35;;
75021;SDS011;63583;49.976;20.182;2022-11-20T01:56:24;17.58;;;9.40;;
75021;SDS011;63583;49.976;20.182;2022-11-20T01:58:53;19.52;;;8.93;;
75021;SDS011;63583;49.976;20.182;2022-11-20T02:01:21;9.05;;;7.38;;
75021;SDS011;63583;49.976;20.182;2022-11-20T02:03:48;9.35;;;7.43;;
75021;SDS011;63583;49.976;20.182;2022-11-20T02:06:23;13.65;;;7.70;;
75021;SDS011;63583;49.976;20.182;2022-11-20T02:08:51;18.30;;;8.52;;
75021;SDS011;63583;49.976;20.182;2022-11-20T02:11:18;12.10;;;8.80;;
75021;SDS011;63583;49.976;20.182;2022-11-20T02:13:44;15.98;;;8.43;;
75021;SDS011;63583;49.976;20.182;2022-11-20T02:18:41;10.48;;;8.05;;
75021;SDS011;63583;49.976;20.182;2022-11-20T02:24:14;15.93;;;8.48;;
75021;SDS011;63583;49.976;20.182;2022-11-20T02:29:36;11.63;;;5.72;;
75021;SDS011;63583;49.976;20.182;2022-11-20T02:32:23;10.40;;;5.90;;
75021;SDS011;63583;49.976;20.182;2022-11-20T02:34:50;9.13;;;6.47;;
75021;SDS011;63583;49.976;20.182;2022-11-20T02:37:16;9.05;;;7.70;;
75021;SDS011;63583;49.976;20.182;2022-11-20T02:39:44;12.25;;;7.18;;
75021;SDS011;63583;49.976;20.182;2022-11-20T02:42:11;16.27;;;8.52;;
75021;SDS011;63583;49.976;20.182;2022-11-20T02:44:37;9.73;;;4.80;;
75021;SDS011;63583;49.976;20.182;2022-11-20T02:47:02;8.63;;;6.90;;
75021;SDS011;63583;49.976;20.182;2022-11-20T02:49:28;5.30;;;3.88;;
75021;SDS011;63583;49.976;20.182;2022-11-20T02:51:54;14.77;;;8.63;;
75021;SDS011;63583;49.976;20.182;2022-11-20T02:54:20;15.60;;;8.20;;
75021;SDS011;63583;49.976;20.182;2022-11-20T02:56:45;9.00;;;6.00;;
75021;SDS011;63583;49.976;20.182;2022-11-20T02:59:11;7.68;;;6.32;;
75021;SDS011;63583;49.976;20.182;2022-11-20T03:01:37;18.23;;;7.00;;
75021;SDS011;63583;49.976;20.182;2022-11-20T03:04:03;12.93;;;6.93;;
75021;SDS011;63583;49.976;20.182;2022-11-20T03:06:28;15.13;;;8.65;;
75021;SDS011;63583;49.976;20.182;2022-11-20T03:08:54;11.57;;;9.00;;
75021;SDS011;63583;49.976;20.182;2022-11-20T03:11:20;19.08;;;6.70;;
75021;SDS011;63583;49.976;20.182;2022-11-20T03:13:46;16.83;;;8.82;;
75021;SDS011;63583;49.976;20.182;2022-11-20T03:16:16;18.02;;;10.48;;
75021;SDS011;63583;49.976;20.182;2022-11-20T03:18:44;19.52;;;8.75;;
75021;SDS011;63583;49.976;20.182;2022-11-20T03:21:11;9.48;;;6.93;;
75021;SDS011;63583;49.976;20.182;2022-11-20T03:23:38;19.80;;;9.45;;
75021;SDS011;63583;49.976;20.182;2022-11-20T03:26:12;15.15;;;7.97;;
75021;SDS011;63583;49.976;20.182;2022-11-20T03:28:38;15.55;;;7.97;;
75021;SDS011;63583;49.976;20.182;2022-11-20T03:31:11;12.60;;;7.82;;
75021;SDS011;63583;49.976;20.182;2022-11-20T03:33:40;15.30;;;8.32;;
75021;SDS011;63583;49.976;20.182;2022-11-20T03:36:07;22.38;;;8.07;;
75021;SDS011;63583;49.976;20.182;2022-11-20T03:38:35;14.05;;;8.60;;
75021;SDS011;63583;49.976;20.182;2022-11-20T03:41:03;16.25;;;10.32;;
75021;SDS011;63583;49.976;20.182;2022-11-20T03:43:33;7.28;;;6.13;;
75021;SDS011;63583;49.976;20.182;2022-11-20T03:45:59;15.77;;;8.13;;
75021;SDS011;63583;49.976;20.182;2022-11-20T03:48:25;14.77;;;9.77;;
75021;SDS011;63583;49.976;20.182;2022-11-20T03:50:52;13.00;;;7.75;;
75021;SDS011;63583;49.976;20.182;2022-11-20T03:53:19;13.30;;;7.80;;
75021;SDS011;63583;49.976;20.182;2022-11-20T03:55:50;15.05;;;10.77;;
75021;SDS011;63583;49.976;20.182;2022-11-20T03:58:16;14.00;;;6.97;;
75021;SDS011;63583;49.976;20.182;2022-11-20T04:00:43;8.55;;;7.75;;
75021;SDS011;63583;49.976;20.182;2022-11-20T04:03:09;16.45;;;7.00;;
75021;SDS011;63583;49.976;20.182;2022-11-20T04:05:34;14.45;;;7.10;;
75021;SDS011;63583;49.976;20.182;2022-11-20T04:08:00;10.60;;;5.82;;
75021;SDS011;63583;49.976;20.182;2022-11-20T04:10:26;12.23;;;7.50;;
75021;SDS011;63583;49.976;20.182;2022-11-20T04:12:52;13.95;;;8.35;;
75021;SDS011;63583;49.976;20.182;2022-11-20T04:15:17;11.85;;;6.28;;
75021;SDS011;63583;49.976;20.182;2022-11-20T04:17:43;16.75;;;7.65;;
75021;SDS011;63583;49.976;20.182;2022-11-20T04:20:09;18.23;;;8.23;;
75021;SDS011;63583;49.976;20.182;2022-11-20T04:22:35;12.70;;;7.95;;
75021;SDS011;63583;49.976;20.182;2022-11-20T04:25:00;12.73;;;6.50;;
75021;SDS011;63583;49.976;20.182;2022-11-20T04:27:26;23.05;;;9.10;;
75021;SDS011;63583;49.976;20.182;2022-11-20T04:29:52;19.27;;;7.57;;
75021;SDS011;63583;49.976;20.182;2022-11-20T04:32:18;22.27;;;9.38;;
75021;SDS011;63583;49.976;20.182;2022-11-20T04:34:43;11.80;;;7.53;;
75021;SDS011;63583;49.976;20.182;2022-11-20T04:37:09;20.88;;;9.85;;
75021;SDS011;63583;49.976;20.182;2022-11-20T04:39:35;9.73;;;8.05;;
75021;SDS011;63583;49.976;20.182;2022-11-20T04:42:01;16.35;;;10.65;;
75021;SDS011;63583;49.976;20.182;2022-11-20T04:44:45;12.48;;;8.25;;
75021;SDS011;63583;49.976;20.182;2022-11-20T04:47:11;18.13;;;9.60;;
75021;SDS011;63583;49.976;20.182;2022-11-20T04:49:36;23.55;;;10.23;;
75021;SDS011;63583;49.976;20.182;2022-11-20T04:52:03;11.68;;;7.50;;
75021;SDS011;63583;49.976;20.182;2022-11-20T04:54:28;8.95;;;7.35;;
75021;SDS011;63583;49.976;20.182;2022-11-20T04:56:54;18.70;;;9.40;;
75021;SDS011;63583;49.976;20.182;2022-11-20T04:59:20;24.75;;;8.70;;
75021;SDS011;63583;49.976;20.182;2022-11-20T05:01:46;13.45;;;9.60;;
75021;SDS011;63583;49.976;20.182;2022-11-20T05:04:11;16.70;;;9.48;;
75021;SDS011;63583;49.976;20.182;2022-11-20T05:06:37;11.63;;;6.78;;
75021;SDS011;63583;49.976;20.182;2022-11-20T05:09:03;10.60;;;6.95;;
75021;SDS011;63583;49.976;20.182;2022-11-20T05:11:29;8.52;;;7.55;;
75021;SDS011;63583;49.976;20.182;2022-11-20T05:13:54;10.73;;;5.65;;
75021;SDS011;63583;49.976;20.182;2022-11-20T05:16:21;6.05;;;4.82;;
75021;SDS011;63583;49.976;20.182;2022-11-20T05:18:49;18.77;;;9.63;;
75021;SDS011;63583;49.976;20.182;2022-11-20T05:21:16;11.13;;;7.47;;
75021;SDS011;63583;49.976;20.182;2022-11-20T05:23:42;14.02;;;6.10;;
75021;SDS011;63583;49.976;20.182;2022-11-20T05:26:12;16.10;;;7.95;;
75021;SDS011;63583;49.976;20.182;2022-11-20T05:28:40;14.20;;;6.22;;
75021;SDS011;63583;49.976;20.182;2022-11-20T05:31:13;17.20;;;8.18;;
75021;SDS011;63583;49.976;20.182;2022-11-20T05:33:41;15.75;;;9.90;;
75021;SDS011;63583;49.976;20.182;2022-11-20T05:36:08;13.65;;;6.90;;
75021;SDS011;63583;49.976;20.182;2022-11-20T05:38:34;12.95;;;6.47;;
75021;SDS011;63583;49.976;20.182;2022-11-20T05:41:06;11.70;;;6.80;;
75021;SDS011;63583;49.976;20.182;2022-11-20T05:43:33;18.00;;;7.90;;
75021;SDS011;63583;49.976;20.182;2022-11-20T05:46:06;8.05;;;5.22;;
75021;SDS011;63583;49.976;20.182;2022-11-20T05:48:33;20.38;;;6.45;;
75021;SDS011;63583;49.976;20.182;2022-11-20T05:51:01;7.88;;;4.43;;
75021;SDS011;63583;49.976;20.182;2022-11-20T05:53:28;10.13;;;5.50;;
75021;SDS011;63583;49.976;20.182;2022-11-20T05:55:58;11.98;;;7.05;;
75021;SDS011;63583;49.976;20.182;2022-11-20T05:58:28;10.10;;;6.00;;
75021;SDS011;63583;49.976;20.182;2022-11-20T06:00:55;12.27;;;6.88;;
75021;SDS011;63583;49.976;20.182;2022-11-20T06:03:48;12.43;;;7.03;;
75021;SDS011;63583;49.976;20.182;2022-11-20T06:06:16;11.32;;;6.97;;
75021;SDS011;63583;49.976;20.182;2022-11-20T06:08:44;14.73;;;7.25;;
75021;SDS011;63583;49.976;20.182;2022-11-20T06:11:11;14.07;;;7.20;;
75021;SDS011;63583;49.976;20.182;2022-11-20T06:13:38;14.75;;;7.47;;
75021;SDS011;63583;49.976;20.182;2022-11-20T06:16:04;12.65;;;5.95;;
75021;SDS011;63583;49.976;20.182;2022-11-20T06:18:30;11.57;;;5.43;;
75021;SDS011;63583;49.976;20.182;2022-11-20T06:21:04;14.00;;;7.90;;
75021;SDS011;63583;49.976;20.182;2022-11-20T06:23:32;9.20;;;7.00;;
75021;SDS011;63583;49.976;20.182;2022-11-20T06:26:06;13.32;;;5.60;;
75021;SDS011;63583;49.976;20.182;2022-11-20T06:28:33;19.90;;;9.68;;
75021;SDS011;63583;49.976;20.182;2022-11-20T06:30:59;17.00;;;9.55;;
75021;SDS011;63583;49.976;20.182;2022-11-20T06:33:25;11.48;;;8.73;;
75021;SDS011;63583;49.976;20.182;2022-11-20T06:35:52;14.35;;;7.07;;
75021;SDS011;63583;49.976;20.182;2022-11-20T06:38:17;10.68;;;5.85;;
75021;SDS011;63583;49.976;20.182;2022-11-20T06:40:43;19.05;;;10.00;;
75021;SDS011;63583;49.976;20.182;2022-11-20T06:43:09;18.25;;;9.85;;
75021;SDS011;63583;49.976;20.182;2022-11-20T06:45:35;19.67;;;10.93;;
75021;SDS011;63583;49.976;20.182;2022-11-20T06:48:01;23.85;;;10.23;;
75021;SDS011;63583;49.976;20.182;2022-11-20T06:50:28;17.25;;;10.50;;
75021;SDS011;63583;49.976;20.182;2022-11-20T06:52:53;20.35;;;8.05;;
75021;SDS011;63583;49.976;20.182;2022-11-20T06:55:19;11.32;;;7.70;;
75021;SDS011;63583;49.976;20.182;2022-11-20T06:57:45;9.77;;;5.10;;
75021;SDS011;63583;49.976;20.182;2022-11-20T07:00:11;19.00;;;6.72;;
75021;SDS011;63583;49.976;20.182;2022-11-20T07:02:37;10.70;;;7.38;;
75021;SDS011;63583;49.976;20.182;2022-11-20T07:05:03;8.35;;;7.00;;
75021;SDS011;63583;49.976;20.182;2022-11-20T07:07:28;17.63;;;8.50;;
75021;SDS011;63583;49.976;20.182;2022-11-20T07:09:54;26.67;;;10.88;;
75021;SDS011;63583;49.976;20.182;2022-11-20T07:12:20;14.32;;;6.65;;
75021;SDS011;63583;49.976;20.182;2022-11-20T07:14:46;19.60;;;9.48;;
75021;SDS011;63583;49.976;20.182;2022-11-20T07:17:12;16.38;;;7.70;;
75021;SDS011;63583;49.976;20.182;2022-11-20T07:19:38;9.52;;;7.47;;
75021;SDS011;63583;49.976;20.182;2022-11-20T07:22:03;18.98;;;9.75;;
75021;SDS011;63583;49.976;20.182;2022-11-20T07:24:29;23.55;;;10.95;;
75021;SDS011;63583;49.976;20.182;2022-11-20T07:26:55;15.40;;;7.30;;
75021;SDS011;63583;49.976;20.182;2022-11-20T07:29:21;17.17;;;8.55;;
75021;SDS011;63583;49.976;20.182;2022-11-20T07:31:46;15.80;;;9.05;;
75021;SDS011;63583;49.976;20.182;2022-11-20T07:34:12;12.93;;;7.57;;
75021;SDS011;63583;49.976;20.182;2022-11-20T07:36:38;16.63;;;9.00;;
75021;SDS011;63583;49.976;20.182;2022-11-20T07:39:04;15.98;;;7.32;;
75021;SDS011;63583;49.976;20.182;2022-11-20T07:41:30;19.73;;;8.07;;
75021;SDS011;63583;49.976;20.182;2022-11-20T07:43:56;10.65;;;8.43;;
75021;SDS011;63583;49.976;20.182;2022-11-20T07:46:22;17.65;;;10.90;;
75021;SDS011;63583;49.976;20.182;2022-11-20T07:48:48;18.30;;;9.70;;
75021;SDS011;63583;49.976;20.182;2022-11-20T07:51:13;12.77;;;8.70;;
75021;SDS011;63583;49.976;20.182;2022-11-20T07:53:39;12.38;;;9.13;;
75021;SDS011;63583;49.976;20.182;2022-11-20T07:56:05;22.02;;;9.93;;
75021;SDS011;63583;49.976;20.182;2022-11-20T07:58:31;20.17;;;8.70;;
75021;SDS011;63583;49.976;20.182;2022-11-20T08:01:03;18.90;;;10.35;;
75021;SDS011;63583;49.976;20.182;2022-11-20T08:03:30;15.20;;;7.55;;
75021;SDS011;63583;49.976;20.182;2022-11-20T08:05:58;21.98;;;10.65;;
75021;SDS011;63583;49.976;20.182;2022-11-20T08:08:26;19.45;;;11.00;;
75021;SDS011;63583;49.976;20.182;2022-11-20T08:10:52;30.75;;;9.05;;
75021;SDS011;63583;49.976;20.182;2022-11-20T08:13:18;25.15;;;9.23;;
75021;SDS011;63583;49.976;20.182;2022-11-20T08:16:02;22.25;;;11.70;;
75021;SDS011;63583;49.976;20.182;2022-11-20T08:18:28;23.73;;;12.82;;
75021;SDS011;63583;49.976;20.182;2022-11-20T08:20:53;16.58;;;11.40;;
75021;SDS011;63583;49.976;20.182;2022-11-20T08:23:19;24.92;;;13.32;;
75021;SDS011;63583;49.976;20.182;2022-11-20T08:25:48;25.40;;;11.45;;
75021;SDS011;63583;49.976;20.182;2022-11-20T08:28:15;16.90;;;11.48;;
75021;SDS011;63583;49.976;20.182;2022-11-20T08:30:40;25.40;;;11.18;;
75021;SDS011;63583;49.976;20.182;2022-11-20T08:33:07;22.08;;;12.50;;
75021;SDS011;63583;49.976;20.182;2022-11-20T08:35:37;32.95;;;14.20;;
75021;SDS011;63583;49.976;20.182;2022-11-20T08:38:04;19.52;;;12.57;;
75021;SDS011;63583;49.976;20.182;2022-11-20T08:40:30;19.95;;;10.95;;
75021;SDS011;63583;49.976;20.182;2022-11-20T08:42:57;18.92;;;11.18;;
75021;SDS011;63583;49.976;20.182;2022-11-20T08:45:23;25.48;;;12.75;;
75021;SDS011;63583;49.976;20.182;2022-11-20T08:47:49;27.35;;;12.70;;
75021;SDS011;63583;49.976;20.182;2022-11-20T08:50:15;15.23;;;9.82;;
75021;SDS011;63583;49.976;20.182;2022-11-20T08:52:42;15.52;;;11.13;;
75021;SDS011;63583;49.976;20.182;2022-11-20T08:55:08;14.05;;;9.63;;
75021;SDS011;63583;49.976;20.182;2022-11-20T08:57:34;18.83;;;12.73;;
75021;SDS011;63583;49.976;20.182;2022-11-20T09:00:03;28.83;;;13.35;;
75021;SDS011;63583;49.976;20.182;2022-11-20T09:02:30;22.67;;;10.48;;
75021;SDS011;63583;49.976;20.182;2022-11-20T09:04:55;19.17;;;10.48;;
75021;SDS011;63583;49.976;20.182;2022-11-20T09:07:23;16.35;;;10.48;;
75021;SDS011;63583;49.976;20.182;2022-11-20T09:09:49;27.85;;;12.60;;
75021;SDS011;63583;49.976;20.182;2022-11-20T09:12:15;22.83;;;12.25;;
75021;SDS011;63583;49.976;20.182;2022-11-20T09:14:41;22.17;;;12.85;;
75021;SDS011;63583;49.976;20.182;2022-11-20T09:17:07;21.60;;;12.32;;
75021;SDS011;63583;49.976;20.182;2022-11-20T09:19:33;24.65;;;14.23;;
75021;SDS011;63583;49.976;20.182;2022-11-20T09:21:59;20.20;;;11.93;;
75021;SDS011;63583;49.976;20.182;2022-11-20T09:24:25;22.10;;;13.27;;
75021;SDS011;63583;49.976;20.182;2022-11-20T09:26:52;25.02;;;12.50;;
75021;SDS011;63583;49.976;20.182;2022-11-20T09:29:17;28.55;;;13.82;;
75021;SDS011;63583;49.976;20.182;2022-11-20T09:31:43;32.05;;;11.60;;
75021;SDS011;63583;49.976;20.182;2022-11-20T09:34:09;26.45;;;11.32;;
75021;SDS011;63583;49.976;20.182;2022-11-20T09:36:35;20.38;;;11.60;;
75021;SDS011;63583;49.976;20.182;2022-11-20T09:39:01;28.38;;;15.20;;
75021;SDS011;63583;49.976;20.182;2022-11-20T09:55:43;30.88;;;12.23;;
75021;SDS011;63583;49.976;20.182;2022-11-20T09:58:31;33.95;;;13.02;;
75021;SDS011;63583;49.976;20.182;2022-11-20T10:01:37;21.52;;;11.60;;
75021;SDS011;63583;49.976;20.182;2022-11-20T10:04:31;15.45;;;10.38;;
75021;SDS011;63583;49.976;20.182;2022-11-20T10:07:01;23.50;;;14.48;;
75021;SDS011;63583;49.976;20.182;2022-11-20T10:09:34;23.08;;;11.57;;
75021;SDS011;63583;49.976;20.182;2022-11-20T10:14:46;21.55;;;11.27;;
75021;SDS011;63583;49.976;20.182;2022-11-20T10:26:25;18.10;;;11.13;;
75021;SDS011;63583;49.976;20.182;2022-11-20T10:29:08;18.80;;;9.43;;
75021;SDS011;63583;49.976;20.182;2022-11-20T10:31:42;24.63;;;11.77;;
75021;SDS011;63583;49.976;20.182;2022-11-20T10:34:23;25.10;;;15.20;;
75021;SDS011;63583;49.976;20.182;2022-11-20T10:36:55;17.98;;;14.13;;
75021;SDS011;63583;49.976;20.182;2022-11-20T10:39:58;21.90;;;9.10;;
75021;SDS011;63583;49.976;20.182;2022-11-20T10:42:16;31.70;;;14.07;;
75021;SDS011;63583;49.976;20.182;2022-11-20T10:44:52;24.25;;;10.13;;
75021;SDS011;63583;49.976;20.182;2022-11-20T10:47:26;10.88;;;8.07;;
75021;SDS011;63583;49.976;20.182;2022-11-20T10:49:55;18.50;;;9.63;;
75021;SDS011;63583;49.976;20.182;2022-11-20T10:52:31;24.92;;;11.10;;
75021;SDS011;63583;49.976;20.182;2022-11-20T10:58:12;14.02;;;8.13;;
75021;SDS011;63583;49.976;20.182;2022-11-20T11:00:41;26.30;;;9.57;;
75021;SDS011;63583;49.976;20.182;2022-11-20T11:03:26;26.92;;;12.20;;
75021;SDS011;63583;49.976;20.182;2022-11-20T11:05:55;19.70;;;10.88;;
75021;SDS011;63583;49.976;20.182;2022-11-20T11:08:26;13.68;;;10.25;;
75021;SDS011;63583;49.976;20.182;2022-11-20T11:10:54;23.08;;;13.35;;
75021;SDS011;63583;49.976;20.182;2022-11-20T11:13:39;20.98;;;10.75;;
75021;SDS011;63583;49.976;20.182;2022-11-20T11:16:05;18.42;;;10.25;;
75021;SDS011;63583;49.976;20.182;2022-11-20T11:18:32;20.67;;;10.15;;
75021;SDS011;63583;49.976;20.182;2022-11-20T11:20:59;21.75;;;11.02;;
75021;SDS011;63583;49.976;20.182;2022-11-20T11:23:31;23.55;;;9.18;;
75021;SDS011;63583;49.976;20.182;2022-11-20T11:26:02;18.83;;;11.07;;
75021;SDS011;63583;49.976;20.182;2022-11-20T11:28:30;24.60;;;10.77;;
75021;SDS011;63583;49.976;20.182;2022-11-20T11:30:56;37.40;;;12.77;;
75021;SDS011;63583;49.976;20.182;2022-11-20T11:35:56;27.45;;;11.93;;
75021;SDS011;63583;49.976;20.182;2022-11-20T11:40:59;26.67;;;11.85;;
75021;SDS011;63583;49.976;20.182;2022-11-20T11:43:27;36.83;;;13.93;;
75021;SDS011;63583;49.976;20.182;2022-11-20T11:48:55;16.48;;;9.77;;
75021;SDS011;63583;49.976;20.182;2022-11-20T11:51:24;19.50;;;11.02;;
75021;SDS011;63583;49.976;20.182;2022-11-20T11:54:08;22.88;;;8.93;;
75021;SDS011;63583;49.976;20.182;2022-11-20T11:56:44;21.88;;;11.05;;
75021;SDS011;63583;49.976;20.182;2022-11-20T11:59:12;21.35;;;10.82;;
75021;SDS011;63583;49.976;20.182;2022-11-20T12:01:49;18.55;;;11.02;;
75021;SDS011;63583;49.976;20.182;2022-11-20T12:07:20;22.20;;;9.93;;
75021;SDS011;63583;49.976;20.182;2022-11-20T12:09:54;18.58;;;13.93;;
75021;SDS011;63583;49.976;20.182;2022-11-20T12:12:36;30.90;;;14.55;;
75021;SDS011;63583;49.976;20.182;2022-11-20T12:15:06;23.17;;;10.90;;
75021;SDS011;63583;49.976;20.182;2022-11-20T12:17:37;18.35;;;10.52;;
75021;SDS011;63583;49.976;20.182;2022-11-20T12:20:05;15.15;;;11.00;;
75021;SDS011;63583;49.976;20.182;2022-11-20T12:22:41;19.00;;;10.80;;
75021;SDS011;63583;49.976;20.182;2022-11-20T12:25:18;25.55;;;11.23;;
75021;SDS011;63583;49.976;20.182;2022-11-20T12:30:46;29.92;;;13.20;;
75021;SDS011;63583;49.976;20.182;2022-11-20T12:36:19;30.40;;;15.50;;
75021;SDS011;63583;49.976;20.182;2022-11-20T12:41:46;23.52;;;14.18;;
75021;SDS011;63583;49.976;20.182;2022-11-20T12:48:10;21.02;;;12.20;;
75021;SDS011;63583;49.976;20.182;2022-11-20T12:53:41;24.98;;;10.90;;
75021;SDS011;63583;49.976;20.182;2022-11-20T12:59:02;22.33;;;10.95;;
75021;SDS011;63583;49.976;20.182;2022-11-20T13:01:56;21.80;;;11.27;;
75021;SDS011;63583;49.976;20.182;2022-11-20T13:07:15;20.13;;;10.73;;
75021;SDS011;63583;49.976;20.182;2022-11-20T13:09:46;25.25;;;11.45;;
75021;SDS011;63583;49.976;20.182;2022-11-20T13:15:17;33.30;;;13.77;;
75021;SDS011;63583;49.976;20.182;2022-11-20T13:17:53;26.13;;;11.40;;
75021;SDS011;63583;49.976;20.182;2022-11-20T13:20:23;27.77;;;13.30;;
75021;SDS011;63583;49.976;20.182;2022-11-20T13:22:53;16.48;;;11.93;;
75021;SDS011;63583;49.976;20.182;2022-11-20T13:28:01;18.92;;;11.98;;
75021;SDS011;63583;49.976;20.182;2022-11-20T13:30:30;20.48;;;11.63;;
75021;SDS011;63583;49.976;20.182;2022-11-20T13:32:57;29.75;;;12.30;;
75021;SDS011;63583;49.976;20.182;2022-11-20T13:35:34;18.75;;;11.70;;
75021;SDS011;63583;49.976;20.182;2022-11-20T13:38:14;29.05;;;12.45;;
75021;SDS011;63583;49.976;20.182;2022-11-20T13:45:56;39.38;;;15.88;;
75021;SDS011;63583;49.976;20.182;2022-11-20T13:48:24;19.70;;;14.25;;
75021;SDS011;63583;49.976;20.182;2022-11-20T13:51:05;29.45;;;13.57;;
75021;SDS011;63583;49.976;20.182;2022-11-20T13:59:43;27.70;;;13.70;;
75021;SDS011;63583;49.976;20.182;2022-11-20T14:02:19;25.05;;;12.90;;
75021;SDS011;63583;49.976;20.182;2022-11-20T14:04:48;23.20;;;12.07;;
75021;SDS011;63583;49.976;20.182;2022-11-20T14:07:18;20.40;;;11.95;;
75021;SDS011;63583;49.976;20.182;2022-11-20T14:09:52;29.90;;;14.73;;
75021;SDS011;63583;49.976;20.182;2022-11-20T14:12:21;29.52;;;15.10;;
75021;SDS011;63583;49.976;20.182;2022-11-20T14:15:05;17.05;;;12.40;;
75021;SDS011;63583;49.976;20.182;2022-11-20T14:17:49;26.88;;;12.88;;
75021;SDS011;63583;49.976;20.182;2022-11-20T14:20:18;21.05;;;10.68;;
75021;SDS011;63583;49.976;20.182;2022-11-20T14:22:52;31.25;;;13.73;;
75021;SDS011;63583;49.976;20.182;2022-11-20T14:25:19;23.00;;;12.63;;
75021;SDS011;63583;49.976;20.182;2022-11-20T14:27:53;23.70;;;13.27;;
75021;SDS011;63583;49.976;20.182;2022-11-20T14:31:03;33.83;;;15.07;;
75021;SDS011;63583;49.976;20.182;2022-11-20T14:33:12;23.13;;;14.27;;
75021;SDS011;63583;49.976;20.182;2022-11-20T14:35:46;27.15;;;14.77;;
75021;SDS011;63583;49.976;20.182;2022-11-20T14:38:18;33.65;;;15.63;;
75021;SDS011;63583;49.976;20.182;2022-11-20T14:40:47;26.55;;;16.35;;
75021;SDS011;63583;49.976;20.182;2022-11-20T14:46:02;28.10;;;11.75;;
75021;SDS011;63583;49.976;20.182;2022-11-20T14:48:43;20.88;;;10.85;;
75021;SDS011;63583;49.976;20.182;2022-11-20T14:51:15;25.88;;;11.85;;
75021;SDS011;63583;49.976;20.182;2022-11-20T14:53:53;20.52;;;11.90;;
75021;SDS011;63583;49.976;20.182;2022-11-20T14:56:23;24.88;;;12.02;;
75021;SDS011;63583;49.976;20.182;2022-11-20T14:58:56;22.33;;;11.65;;
75021;SDS011;63583;49.976;20.182;2022-11-20T15:01:26;24.05;;;13.18;;
75021;SDS011;63583;49.976;20.182;2022-11-20T15:03:59;24.65;;;12.38;;
75021;SDS011;63583;49.976;20.182;2022-11-20T15:06:33;19.27;;;11.73;;
75021;SDS011;63583;49.976;20.182;2022-11-20T15:08:59;18.85;;;10.65;;
75021;SDS011;63583;49.976;20.182;2022-11-20T15:11:29;27.42;;;9.80;;
75021;SDS011;63583;49.976;20.182;2022-11-20T15:13:57;25.35;;;12.63;;
75021;SDS011;63583;49.976;20.182;2022-11-20T15:16:27;19.73;;;10.15;;
75021;SDS011;63583;49.976;20.182;2022-11-20T15:18:53;25.38;;;12.65;;
75021;SDS011;63583;49.976;20.182;2022-11-20T15:21:20;23.13;;;11.25;;
75021;SDS011;63583;49.976;20.182;2022-11-20T15:23:46;37.55;;;13.55;;
75021;SDS011;63583;49.976;20.182;2022-11-20T15:26:13;26.00;;;12.70;;
75021;SDS011;63583;49.976;20.182;2022-11-20T15:28:44;18.58;;;11.32;;
75021;SDS011;63583;49.976;20.182;2022-11-20T15:31:13;20.42;;;10.40;;
75021;SDS011;63583;49.976;20.182;2022-11-20T15:33:41;20.85;;;11.35;;
75021;SDS011;63583;49.976;20.182;2022-11-20T15:36:08;29.80;;;13.60;;
75021;SDS011;63583;49.976;20.182;2022-11-20T15:38:34;23.13;;;10.02;;
75021;SDS011;63583;49.976;20.182;2022-11-20T15:41:00;17.52;;;10.00;;
75021;SDS011;63583;49.976;20.182;2022-11-20T15:43:26;28.50;;;13.07;;
75021;SDS011;63583;49.976;20.182;2022-11-20T15:46:11;28.27;;;13.18;;
75021;SDS011;63583;49.976;20.182;2022-11-20T15:48:41;22.52;;;10.15;;
75021;SDS011;63583;49.976;20.182;2022-11-20T15:53:34;26.00;;;11.93;;
75021;SDS011;63583;49.976;20.182;2022-11-20T15:56:00;27.20;;;12.25;;
75021;SDS011;63583;49.976;20.182;2022-11-20T15:58:27;14.00;;;9.38;;
75021;SDS011;63583;49.976;20.182;2022-11-20T16:00:52;17.10;;;11.10;;
75021;SDS011;63583;49.976;20.182;2022-11-20T16:03:19;25.60;;;12.77;;
75021;SDS011;63583;49.976;20.182;2022-11-20T16:05:44;25.23;;;13.75;;
75021;SDS011;63583;49.976;20.182;2022-11-20T16:08:11;27.63;;;14.05;;